Time;durP1;ratioP1;P1;durP2;ratioP2;P2;SDS_P1;SDS_P2;PMS_P1;PMS_P2;Temp;Humidity;BMP_temperature;BMP_pressure;BME280_temperature;BME280_humidity;BME280_pressure;Samples;Min_cycle;Max_cycle;Signal;HPM_P1;HPM_P2
2022/05/07 00:00:43;;;;;;;8.33;7.63;;;;;;;;;;5073013;28;20394;-62
2022/05/07 00:03:09;;;;;;;8.20;7.53;;;;;;;;;;5073098;28;20398;-62
2022/05/07 00:05:37;;;;;;;8.40;7.90;;;;;;;;;;5073051;28;20394;-62
2022/05/07 00:08:04;;;;;;;8.10;7.30;;;;;;;;;;5072880;28;20422;-63
2022/05/07 00:10:30;;;;;;;8.27;7.77;;;;;;;;;;5073069;28;20948;-64
2022/05/07 00:12:56;;;;;;;7.97;7.27;;;;;;;;;;5072980;28;20423;-65
2022/05/07 00:15:22;;;;;;;10.80;7.70;;;;;;;;;;5072903;28;20887;-66
2022/05/07 00:18:05;;;;;;;9.13;8.53;;;;;;;;;;5072777;28;20503;-62
2022/05/07 00:20:32;;;;;;;8.47;7.67;;;;;;;;;;5072827;28;20397;-66
2022/05/07 00:22:58;;;;;;;11.73;8.13;;;;;;;;;;5071485;28;20437;-66
2022/05/07 00:25:25;;;;;;;8.30;7.80;;;;;;;;;;5073097;28;20406;-66
2022/05/07 00:27:51;;;;;;;13.13;9.33;;;;;;;;;;5072879;28;20893;-65
2022/05/07 00:30:17;;;;;;;12.87;10.10;;;;;;;;;;5072665;28;20468;-62
2022/05/07 00:32:43;;;;;;;11.83;10.50;;;;;;;;;;5073828;28;20943;-62
2022/05/07 00:35:11;;;;;;;11.97;10.53;;;;;;;;;;5076576;28;20406;-62
2022/05/07 00:37:38;;;;;;;10.57;9.53;;;;;;;;;;5076236;28;20767;-62
2022/05/07 00:40:04;;;;;;;9.30;8.70;;;;;;;;;;5076070;28;20487;-61
2022/05/07 00:42:30;;;;;;;9.60;8.80;;;;;;;;;;5076277;28;20398;-62
2022/05/07 00:44:56;;;;;;;11.40;9.40;;;;;;;;;;5076210;28;20404;-63
2022/05/07 00:47:25;;;;;;;10.17;9.17;;;;;;;;;;5076175;28;20464;-62
2022/05/07 00:52:47;;;;;;;10.67;9.57;;;;;;;;;;5076304;28;20397;-62
2022/05/07 00:55:13;;;;;;;9.47;8.77;;;;;;;;;;5076134;28;20768;-63
2022/05/07 00:57:39;;;;;;;10.63;9.63;;;;;;;;;;5074838;28;20430;-61
2022/05/07 01:00:06;;;;;;;12.90;10.63;;;;;;;;;;5075923;28;20452;-62
2022/05/07 01:02:32;;;;;;;11.53;10.37;;;;;;;;;;5075907;28;20394;-62
2022/05/07 01:04:58;;;;;;;11.00;10.20;;;;;;;;;;5075899;28;20410;-64
2022/05/07 01:07:24;;;;;;;9.50;8.80;;;;;;;;;;5075816;28;20482;-66
2022/05/07 01:09:50;;;;;;;10.37;9.33;;;;;;;;;;5075582;28;20952;-63
2022/05/07 01:12:19;;;;;;;14.40;9.43;;;;;;;;;;5074541;28;20509;-66
2022/05/07 01:14:45;;;;;;;10.40;9.57;;;;;;;;;;5075763;28;20429;-62
2022/05/07 01:17:11;;;;;;;10.37;9.50;;;;;;;;;;5075609;28;20399;-65
2022/05/07 01:19:37;;;;;;;9.47;8.83;;;;;;;;;;5075495;28;20410;-62
2022/05/07 01:22:04;;;;;;;14.50;10.60;;;;;;;;;;5075549;28;20417;-62
2022/05/07 01:24:29;;;;;;;12.97;9.50;;;;;;;;;;5075742;28;20444;-63
2022/05/07 01:26:55;;;;;;;11.73;10.63;;;;;;;;;;5075497;28;20886;-62
2022/05/07 01:29:21;;;;;;;11.40;10.50;;;;;;;;;;5075242;28;20461;-63
2022/05/07 01:31:47;;;;;;;10.63;9.67;;;;;;;;;;5075353;28;20394;-65
2022/05/07 01:34:13;;;;;;;20.10;10.23;;;;;;;;;;5075248;28;20738;-62
2022/05/07 01:36:40;;;;;;;9.43;8.53;;;;;;;;;;5075133;28;20390;-62
2022/05/07 01:39:06;;;;;;;10.17;9.17;;;;;;;;;;5074955;28;20410;-62
2022/05/07 01:41:32;;;;;;;10.70;9.80;;;;;;;;;;5073852;28;20426;-62
2022/05/07 01:43:58;;;;;;;10.70;9.80;;;;;;;;;;5073903;28;20422;-62
2022/05/07 01:49:09;;;;;;;11.30;10.40;;;;;;;;;;5074866;28;20448;-62
2022/05/07 01:51:35;;;;;;;10.53;9.73;;;;;;;;;;5075206;28;20410;-60
2022/05/07 01:54:01;;;;;;;17.90;10.70;;;;;;;;;;5074867;28;20462;-62
2022/05/07 01:56:27;;;;;;;16.43;11.60;;;;;;;;;;5074800;28;20487;-62
2022/05/07 01:58:53;;;;;;;12.03;11.03;;;;;;;;;;5074894;28;20957;-62
2022/05/07 02:01:20;;;;;;;11.53;10.63;;;;;;;;;;5074687;28;20785;-65
2022/05/07 02:03:46;;;;;;;13.13;11.83;;;;;;;;;;5075003;28;20419;-64
2022/05/07 02:06:12;;;;;;;11.63;10.30;;;;;;;;;;5074633;28;20402;-62
2022/05/07 02:08:38;;;;;;;12.70;11.37;;;;;;;;;;5074582;28;20461;-66
2022/05/07 02:11:04;;;;;;;11.70;10.70;;;;;;;;;;5074900;28;20434;-62
2022/05/07 02:13:30;;;;;;;11.67;10.57;;;;;;;;;;5074521;28;20438;-62
2022/05/07 02:15:56;;;;;;;11.70;9.90;;;;;;;;;;5074518;28;20398;-62
2022/05/07 02:18:22;;;;;;;11.57;10.53;;;;;;;;;;5074440;28;20463;-63
2022/05/07 02:20:49;;;;;;;12.90;10.83;;;;;;;;;;5074600;28;20420;-62
2022/05/07 02:23:16;;;;;;;17.37;10.00;;;;;;;;;;5074566;28;20420;-62
2022/05/07 02:25:42;;;;;;;10.70;10.00;;;;;;;;;;5074340;28;20401;-64
2022/05/07 02:28:08;;;;;;;11.50;9.53;;;;;;;;;;5074220;28;20410;-63
2022/05/07 02:30:34;;;;;;;13.13;9.23;;;;;;;;;;5074097;28;20542;-64
2022/05/07 02:33:00;;;;;;;10.23;8.93;;;;;;;;;;5074063;28;20410;-64
2022/05/07 02:35:26;;;;;;;11.70;9.50;;;;;;;;;;5074112;28;20414;-66
2022/05/07 02:37:54;;;;;;;12.23;10.27;;;;;;;;;;5074261;28;20869;-64
2022/05/07 02:40:20;;;;;;;9.73;8.87;;;;;;;;;;5074042;28;20519;-62
2022/05/07 02:42:46;;;;;;;10.00;9.30;;;;;;;;;;5073946;28;20818;-62
2022/05/07 02:45:12;;;;;;;10.07;9.30;;;;;;;;;;5073885;28;20410;-62
2022/05/07 02:47:39;;;;;;;10.97;10.07;;;;;;;;;;5074113;28;20402;-62
2022/05/07 02:50:06;;;;;;;9.97;9.20;;;;;;;;;;5074014;28;20556;-61
2022/05/07 02:52:33;;;;;;;9.57;8.87;;;;;;;;;;5073916;28;20398;-62
2022/05/07 02:55:06;;;;;;;9.97;8.27;;;;;;;;;;5073755;28;20418;-67
2022/05/07 02:57:32;;;;;;;10.80;9.27;;;;;;;;;;5073858;28;20869;-67
2022/05/07 02:59:58;;;;;;;10.03;9.20;;;;;;;;;;5073739;28;20860;-67
2022/05/07 03:02:24;;;;;;;10.07;8.80;;;;;;;;;;5073994;28;20402;-67
2022/05/07 03:04:51;;;;;;;10.27;9.33;;;;;;;;;;5073754;28;20426;-67
2022/05/07 03:07:17;;;;;;;10.77;9.97;;;;;;;;;;5073601;28;20923;-67
2022/05/07 03:09:43;;;;;;;9.87;8.97;;;;;;;;;;5073395;28;20549;-67
2022/05/07 03:12:09;;;;;;;9.97;9.07;;;;;;;;;;5073603;28;20410;-67
2022/05/07 03:14:36;;;;;;;9.50;8.73;;;;;;;;;;5073556;28;20410;-66
2022/05/07 03:17:02;;;;;;;16.20;9.60;;;;;;;;;;5073480;28;20434;-67
2022/05/07 03:19:28;;;;;;;9.80;9.00;;;;;;;;;;5073467;28;20414;-66
2022/05/07 03:21:54;;;;;;;10.33;9.50;;;;;;;;;;5072175;28;20484;-66
2022/05/07 03:24:20;;;;;;;13.50;9.90;;;;;;;;;;5073456;28;20509;-67
2022/05/07 03:26:46;;;;;;;10.53;9.63;;;;;;;;;;5073454;28;20905;-66
2022/05/07 03:29:12;;;;;;;10.93;9.87;;;;;;;;;;5073324;28;20863;-67
2022/05/07 03:31:39;;;;;;;11.83;9.77;;;;;;;;;;5073371;28;20469;-67
2022/05/07 03:34:05;;;;;;;9.57;8.87;;;;;;;;;;5073571;28;20774;-63
2022/05/07 03:36:31;;;;;;;9.33;8.70;;;;;;;;;;5073249;28;20459;-62
2022/05/07 03:38:57;;;;;;;9.57;8.77;;;;;;;;;;5073252;28;21124;-66
2022/05/07 03:41:23;;;;;;;10.40;9.60;;;;;;;;;;5073051;28;20505;-67
2022/05/07 03:43:49;;;;;;;10.60;9.50;;;;;;;;;;5073494;28;20447;-67
2022/05/07 03:46:15;;;;;;;10.07;9.30;;;;;;;;;;5073120;28;20405;-67
2022/05/07 03:48:41;;;;;;;10.17;9.37;;;;;;;;;;5071796;28;20465;-66
2022/05/07 03:51:07;;;;;;;22.10;9.57;;;;;;;;;;5073052;28;20782;-66
2022/05/07 03:53:33;;;;;;;15.90;8.93;;;;;;;;;;5073024;28;20511;-66
2022/05/07 03:56:00;;;;;;;8.33;7.83;;;;;;;;;;5073085;28;20395;-67
2022/05/07 03:58:26;;;;;;;9.53;8.80;;;;;;;;;;5073032;28;20914;-67
2022/05/07 04:00:54;;;;;;;8.67;7.97;;;;;;;;;;5073064;28;20447;-66
2022/05/07 04:03:20;;;;;;;10.00;9.10;;;;;;;;;;5073190;28;20410;-65
2022/05/07 04:05:46;;;;;;;10.03;9.30;;;;;;;;;;5072993;28;20460;-66
2022/05/07 04:08:12;;;;;;;8.37;7.87;;;;;;;;;;5074867;28;20414;-67
2022/05/07 04:10:38;;;;;;;9.10;8.37;;;;;;;;;;5075426;28;20560;-66
2022/05/07 04:13:04;;;;;;;9.00;8.30;;;;;;;;;;5077059;28;20409;-65
2022/05/07 04:15:31;;;;;;;8.30;7.90;;;;;;;;;;5075452;28;20803;-65
2022/05/07 04:17:58;;;;;;;8.67;8.17;;;;;;;;;;5076916;28;20398;-61
2022/05/07 04:20:24;;;;;;;8.73;8.10;;;;;;;;;;5076919;28;20412;-62
2022/05/07 04:22:50;;;;;;;8.50;8.00;;;;;;;;;;5076525;28;20398;-61
2022/05/07 04:25:16;;;;;;;8.60;8.00;;;;;;;;;;5076578;28;20516;-62
2022/05/07 04:27:42;;;;;;;11.80;7.40;;;;;;;;;;5076546;28;20890;-66
2022/05/07 04:30:09;;;;;;;10.00;7.70;;;;;;;;;;5076385;28;20469;-65
2022/05/07 04:32:35;;;;;;;9.73;7.60;;;;;;;;;;5076636;28;20398;-66
2022/05/07 04:35:01;;;;;;;7.80;7.50;;;;;;;;;;5076400;28;20892;-66
2022/05/07 04:37:27;;;;;;;8.80;8.20;;;;;;;;;;5074902;28;20457;-66
2022/05/07 04:39:53;;;;;;;8.17;7.57;;;;;;;;;;5076094;28;20471;-66
2022/05/07 04:42:19;;;;;;;8.90;8.40;;;;;;;;;;5076550;28;20489;-66
2022/05/07 04:44:45;;;;;;;10.20;9.47;;;;;;;;;;5076246;28;20414;-66
2022/05/07 04:47:11;;;;;;;9.63;9.00;;;;;;;;;;5076169;28;20824;-66
2022/05/07 04:49:37;;;;;;;9.23;8.40;;;;;;;;;;5076052;28;20465;-66
2022/05/07 04:52:05;;;;;;;10.07;9.13;;;;;;;;;;5076057;28;20826;-65
2022/05/07 04:54:31;;;;;;;8.17;7.77;;;;;;;;;;5075892;28;20903;-65
2022/05/07 04:56:58;;;;;;;9.90;9.20;;;;;;;;;;5075943;28;20402;-66
2022/05/07 04:59:24;;;;;;;8.70;8.20;;;;;;;;;;5075930;28;20513;-67
2022/05/07 05:01:50;;;;;;;9.90;9.30;;;;;;;;;;5074568;28;20447;-66
2022/05/07 05:04:16;;;;;;;9.37;8.77;;;;;;;;;;5075844;28;20623;-61
2022/05/07 05:06:42;;;;;;;9.67;9.07;;;;;;;;;;5075869;28;20406;-62
2022/05/07 05:09:08;;;;;;;11.40;8.97;;;;;;;;;;5075946;28;20504;-61
2022/05/07 05:11:35;;;;;;;10.50;9.70;;;;;;;;;;5076046;28;20398;-62
2022/05/07 05:15:01;;;;;;;10.10;9.30;;;;;;;;;;5075812;28;20421;-62
2022/05/07 05:16:47;;;;;;;10.23;9.50;;;;;;;;;;5075494;28;20453;-60
2022/05/07 05:19:13;;;;;;;10.97;9.97;;;;;;;;;;5075346;28;20499;-60
2022/05/07 05:21:39;;;;;;;10.43;9.60;;;;;;;;;;5075516;28;20402;-62
2022/05/07 05:24:05;;;;;;;10.37;9.40;;;;;;;;;;5075325;28;20426;-66
2022/05/07 05:26:31;;;;;;;10.13;9.43;;;;;;;;;;5075314;28;20881;-65
2022/05/07 05:28:57;;;;;;;10.00;9.23;;;;;;;;;;5075233;28;20454;-65
2022/05/07 05:31:23;;;;;;;9.97;9.20;;;;;;;;;;5075361;28;20904;-66
2022/05/07 05:33:49;;;;;;;9.90;9.10;;;;;;;;;;5075345;28;20489;-66
2022/05/07 05:36:15;;;;;;;10.00;9.10;;;;;;;;;;5075419;28;20410;-67
2022/05/07 05:38:41;;;;;;;9.77;9.03;;;;;;;;;;5075048;28;20433;-64
2022/05/07 05:41:07;;;;;;;10.20;9.50;;;;;;;;;;5074933;28;20477;-65
2022/05/07 05:43:33;;;;;;;10.73;10.03;;;;;;;;;;5075087;28;20753;-64
2022/05/07 05:45:59;;;;;;;10.23;9.53;;;;;;;;;;5074987;28;20417;-66
2022/05/07 05:48:29;;;;;;;15.20;10.93;;;;;;;;;;5074895;28;20409;-66
2022/05/07 05:50:55;;;;;;;11.40;10.30;;;;;;;;;;5074898;28;20414;-71
2022/05/07 05:53:21;;;;;;;11.20;10.20;;;;;;;;;;5073386;28;20434;-63
2022/05/07 05:55:47;;;;;;;11.07;10.27;;;;;;;;;;5074711;28;20406;-63
2022/05/07 05:58:13;;;;;;;12.30;11.03;;;;;;;;;;5074901;28;20414;-60
2022/05/07 06:00:39;;;;;;;10.53;9.83;;;;;;;;;;5074523;28;20500;-62
2022/05/07 06:03:05;;;;;;;11.50;10.27;;;;;;;;;;5074572;28;20469;-60
2022/05/07 06:05:31;;;;;;;11.60;10.70;;;;;;;;;;5074483;28;20410;-61
2022/05/07 06:07:57;;;;;;;11.93;10.83;;;;;;;;;;5074699;28;20418;-62
2022/05/07 06:10:23;;;;;;;11.57;9.60;;;;;;;;;;5074326;28;20964;-68
2022/05/07 06:12:49;;;;;;;14.27;11.77;;;;;;;;;;5074385;28;20395;-64
2022/05/07 06:15:15;;;;;;;13.90;12.60;;;;;;;;;;5073055;28;20422;-67
2022/05/07 06:17:41;;;;;;;12.83;11.70;;;;;;;;;;5074265;28;20411;-68
2022/05/07 06:20:07;;;;;;;12.03;11.00;;;;;;;;;;5074263;28;20411;-66
2022/05/07 06:22:33;;;;;;;12.67;11.57;;;;;;;;;;5074216;28;20999;-67
2022/05/07 06:27:44;;;;;;;13.40;10.93;;;;;;;;;;5074285;28;20897;-67
2022/05/07 06:30:10;;;;;;;11.40;10.43;;;;;;;;;;5073211;28;20461;-66
2022/05/07 06:32:37;;;;;;;12.20;10.97;;;;;;;;;;5074070;28;20406;-65
2022/05/07 06:35:07;;;;;;;12.27;11.30;;;;;;;;;;5073994;28;20939;-64
2022/05/07 06:37:34;;;;;;;12.27;11.23;;;;;;;;;;5073945;28;20399;-61
2022/05/07 06:40:00;;;;;;;25.73;11.87;;;;;;;;;;5073943;28;20826;-67
2022/05/07 06:42:26;;;;;;;11.83;10.83;;;;;;;;;;5073763;28;20398;-61
2022/05/07 06:44:52;;;;;;;18.10;10.90;;;;;;;;;;5073715;28;20398;-61
2022/05/07 06:47:18;;;;;;;15.50;11.90;;;;;;;;;;5073621;28;20734;-60
2022/05/07 06:49:45;;;;;;;11.53;10.63;;;;;;;;;;5073550;28;20457;-61
2022/05/07 06:52:11;;;;;;;11.53;10.37;;;;;;;;;;5073487;28;20396;-60
2022/05/07 06:54:37;;;;;;;12.47;11.10;;;;;;;;;;5073715;28;20509;-61
2022/05/07 06:57:04;;;;;;;13.43;12.23;;;;;;;;;;5073719;28;20402;-60
2022/05/07 06:59:33;;;;;;;22.00;14.97;;;;;;;;;;5073477;28;20449;-61
2022/05/07 07:02:00;;;;;;;11.60;10.60;;;;;;;;;;5073684;28;20796;-60
2022/05/07 07:04:26;;;;;;;12.53;10.83;;;;;;;;;;5073688;28;20425;-60
2022/05/07 07:06:52;;;;;;;14.77;11.40;;;;;;;;;;5073505;28;20413;-61
2022/05/07 07:09:19;;;;;;;12.33;11.13;;;;;;;;;;5073399;28;20514;-66
2022/05/07 07:11:45;;;;;;;10.23;9.27;;;;;;;;;;5073356;28;20501;-67
2022/05/07 07:14:12;;;;;;;12.30;11.10;;;;;;;;;;5073551;28;20429;-65
2022/05/07 07:16:38;;;;;;;11.73;10.60;;;;;;;;;;5072080;28;20432;-63
2022/05/07 07:19:04;;;;;;;14.93;10.80;;;;;;;;;;5073273;28;20870;-68
2022/05/07 07:21:30;;;;;;;15.10;11.10;;;;;;;;;;5073467;28;20410;-68
2022/05/07 07:23:57;;;;;;;12.27;11.03;;;;;;;;;;5073196;28;20402;-67
2022/05/07 07:26:24;;;;;;;17.57;12.37;;;;;;;;;;5073164;28;20405;-67
2022/05/07 07:28:50;;;;;;;12.20;11.30;;;;;;;;;;5073077;28;20795;-65
2022/05/07 07:31:16;;;;;;;14.93;11.60;;;;;;;;;;5073260;28;20434;-61
2022/05/07 07:33:43;;;;;;;10.70;9.77;;;;;;;;;;5073256;28;20737;-61
2022/05/07 07:36:10;;;;;;;18.23;9.90;;;;;;;;;;5073143;28;20403;-60
2022/05/07 07:38:38;;;;;;;10.57;9.60;;;;;;;;;;5073233;28;20402;-60
2022/05/07 07:41:05;;;;;;;9.37;8.70;;;;;;;;;;5073134;28;20507;-60
2022/05/07 07:43:31;;;;;;;9.90;9.10;;;;;;;;;;5077237;28;20411;-60
2022/05/07 07:48:42;;;;;;;11.30;10.23;;;;;;;;;;5077049;28;20430;-60
2022/05/07 07:51:08;;;;;;;8.63;7.97;;;;;;;;;;5077122;28;20439;-61
2022/05/07 07:53:36;;;;;;;9.23;8.33;;;;;;;;;;5077051;28;20430;-61
2022/05/07 07:56:03;;;;;;;10.67;8.53;;;;;;;;;;5076905;28;20414;-61
2022/05/07 07:58:29;;;;;;;8.80;8.23;;;;;;;;;;5076710;28;20418;-60
2022/05/07 08:00:55;;;;;;;8.37;7.67;;;;;;;;;;5076853;28;20906;-60
2022/05/07 08:03:21;;;;;;;8.20;7.60;;;;;;;;;;5076888;28;20414;-61
2022/05/07 08:05:49;;;;;;;9.60;7.47;;;;;;;;;;5076850;28;20774;-66
2022/05/07 08:13:45;;;;;;;9.50;8.80;;;;;;;;;;5076765;28;20430;-61
2022/05/07 08:16:12;;;;;;;9.20;8.47;;;;;;;;;;5076621;28;20424;-61
2022/05/07 08:18:38;;;;;;;9.07;8.27;;;;;;;;;;5076650;28;20424;-67
2022/05/07 08:21:06;;;;;;;10.27;8.80;;;;;;;;;;5076664;28;20783;-65
2022/05/07 08:23:32;;;;;;;10.40;8.70;;;;;;;;;;5076637;28;20417;-65
2022/05/07 08:25:58;;;;;;;8.10;7.50;;;;;;;;;;5076823;28;20500;-66
2022/05/07 08:28:24;;;;;;;9.37;7.70;;;;;;;;;;5076676;28;20413;-65
2022/05/07 08:30:53;;;;;;;7.70;7.17;;;;;;;;;;5076465;28;20476;-66
2022/05/07 08:33:20;;;;;;;11.50;8.27;;;;;;;;;;5076402;28;20487;-66
2022/05/07 08:35:47;;;;;;;9.83;8.00;;;;;;;;;;5076391;28;20409;-61
2022/05/07 08:38:13;;;;;;;7.57;6.87;;;;;;;;;;5074891;28;20913;-61
2022/05/07 08:40:42;;;;;;;8.10;7.40;;;;;;;;;;5076040;28;20465;-60
2022/05/07 08:43:08;;;;;;;16.17;7.83;;;;;;;;;;5076095;28;20420;-61
2022/05/07 08:45:35;;;;;;;7.33;6.73;;;;;;;;;;5076053;28;20404;-61
2022/05/07 08:48:01;;;;;;;6.90;6.60;;;;;;;;;;5076309;28;20497;-62
2022/05/07 08:50:27;;;;;;;8.73;7.13;;;;;;;;;;5076002;28;20556;-60
2022/05/07 08:52:54;;;;;;;7.50;7.10;;;;;;;;;;5075657;28;20456;-61
2022/05/07 08:55:23;;;;;;;7.93;7.43;;;;;;;;;;5075939;28;20445;-62
2022/05/07 08:57:50;;;;;;;7.20;6.70;;;;;;;;;;5076153;28;20765;-61
2022/05/07 09:00:18;;;;;;;8.53;6.67;;;;;;;;;;5076017;28;20456;-61
2022/05/07 09:02:44;;;;;;;9.67;7.07;;;;;;;;;;5075970;28;20887;-60
2022/05/07 09:05:11;;;;;;;7.23;6.83;;;;;;;;;;5076017;28;20415;-60
2022/05/07 09:07:40;;;;;;;7.67;7.23;;;;;;;;;;5075918;28;20395;-62
2022/05/07 09:10:12;;;;;;;7.63;6.73;;;;;;;;;;5075725;28;20475;-61
2022/05/07 09:12:38;;;;;;;7.60;5.93;;;;;;;;;;5075869;28;20418;-62
2022/05/07 09:15:05;;;;;;;6.40;5.80;;;;;;;;;;5075769;28;20681;-66
2022/05/07 09:17:31;;;;;;;7.47;6.97;;;;;;;;;;5075724;28;20448;-66
2022/05/07 09:19:57;;;;;;;6.87;6.40;;;;;;;;;;5075734;28;20904;-65
2022/05/07 09:22:25;;;;;;;5.60;5.23;;;;;;;;;;5075724;28;20526;-65
2022/05/07 09:24:55;;;;;;;6.10;5.80;;;;;;;;;;5075798;28;20448;-61
2022/05/07 09:27:21;;;;;;;6.13;5.73;;;;;;;;;;5075603;28;20445;-60
2022/05/07 09:29:58;;;;;;;5.60;5.30;;;;;;;;;;5075315;28;20567;-60
2022/05/07 09:32:33;;;;;;;5.60;5.40;;;;;;;;;;5075415;28;20765;-61
2022/05/07 09:37:44;;;;;;;5.73;5.03;;;;;;;;;;5075374;28;20394;-61
2022/05/07 09:40:12;;;;;;;5.03;4.53;;;;;;;;;;5075165;28;20976;-59
2022/05/07 09:42:39;;;;;;;4.23;4.03;;;;;;;;;;5075481;28;20406;-61
2022/05/07 09:45:06;;;;;;;4.93;4.63;;;;;;;;;;5075371;28;20402;-60
2022/05/07 09:47:33;;;;;;;6.93;5.07;;;;;;;;;;5074264;28;20819;-61
2022/05/07 09:58:15;;;;;;;3.67;3.47;;;;;;;;;;5074939;28;20834;-62
2022/05/07 10:00:50;;;;;;;4.20;3.60;;;;;;;;;;5074465;28;20494;-64
2022/05/07 10:03:20;;;;;;;4.40;4.17;;;;;;;;;;5072279;28;20455;-61
2022/05/07 10:05:52;;;;;;;3.70;3.50;;;;;;;;;;5072560;28;20417;-60
2022/05/07 10:08:18;;;;;;;8.43;3.83;;;;;;;;;;5073373;28;20415;-61
2022/05/07 10:10:46;;;;;;;3.20;3.00;;;;;;;;;;5073087;28;20473;-61
2022/05/07 10:13:15;;;;;;;3.53;3.07;;;;;;;;;;5073227;28;20769;-62
2022/05/07 10:15:41;;;;;;;2.90;2.70;;;;;;;;;;5074566;28;20463;-61
2022/05/07 10:18:14;;;;;;;4.57;3.20;;;;;;;;;;5074627;28;20895;-62
2022/05/07 10:20:40;;;;;;;4.60;3.70;;;;;;;;;;5074495;28;20408;-61
2022/05/07 10:23:08;;;;;;;3.13;3.03;;;;;;;;;;5074634;28;20451;-61
2022/05/07 10:25:34;;;;;;;3.10;2.90;;;;;;;;;;5074437;28;20508;-61
2022/05/07 10:28:10;;;;;;;3.23;2.93;;;;;;;;;;5074356;28;20401;-61
2022/05/07 10:30:52;;;;;;;2.80;2.47;;;;;;;;;;5074273;28;20474;-61
2022/05/07 10:33:19;;;;;;;24.90;2.43;;;;;;;;;;5074502;28;20415;-61
2022/05/07 10:35:47;;;;;;;3.07;2.87;;;;;;;;;;5074714;28;20448;-63
2022/05/07 10:38:15;;;;;;;3.90;3.03;;;;;;;;;;5074129;28;20452;-61
2022/05/07 10:40:51;;;;;;;2.73;2.53;;;;;;;;;;5074004;28;20482;-61
2022/05/07 10:43:26;;;;;;;5.67;2.53;;;;;;;;;;5073996;28;20417;-61
2022/05/07 10:45:56;;;;;;;2.80;2.60;;;;;;;;;;5074034;28;20405;-60
2022/05/07 10:48:22;;;;;;;2.40;2.30;;;;;;;;;;5074295;28;20401;-64
2022/05/07 10:50:55;;;;;;;5.63;2.37;;;;;;;;;;5073819;28;20833;-62
2022/05/07 10:53:22;;;;;;;3.47;2.13;;;;;;;;;;5073907;28;20792;-65
2022/05/07 10:55:51;;;;;;;3.27;2.90;;;;;;;;;;5073914;28;20760;-67
2022/05/07 10:58:26;;;;;;;5.53;2.80;;;;;;;;;;5073884;28;20485;-66
2022/05/07 11:00:52;;;;;;;2.37;2.27;;;;;;;;;;5073799;28;20867;-67
2022/05/07 11:03:24;;;;;;;2.53;2.50;;;;;;;;;;5073826;28;20445;-66
2022/05/07 11:05:50;;;;;;;3.47;2.43;;;;;;;;;;5073793;28;20420;-66
2022/05/07 11:08:16;;;;;;;4.00;2.20;;;;;;;;;;5073664;28;20880;-66
2022/05/07 11:10:42;;;;;;;2.50;2.40;;;;;;;;;;5073587;28;20468;-67
2022/05/07 11:13:09;;;;;;;2.90;2.63;;;;;;;;;;5074387;28;20401;-61
2022/05/07 11:15:35;;;;;;;2.20;2.10;;;;;;;;;;5075772;28;20410;-62
2022/05/07 11:18:02;;;;;;;4.77;2.27;;;;;;;;;;5076224;28;20875;-61
2022/05/07 11:20:29;;;;;;;4.23;2.47;;;;;;;;;;5074088;28;20470;-61
2022/05/07 11:22:59;;;;;;;9.30;2.60;;;;;;;;;;5073764;28;20802;-62
2022/05/07 11:25:25;;;;;;;2.83;2.73;;;;;;;;;;5073722;28;20490;-65
2022/05/07 11:27:51;;;;;;;3.47;2.70;;;;;;;;;;5073476;28;20965;-66
2022/05/07 11:30:18;;;;;;;2.33;2.33;;;;;;;;;;5073356;28;20468;-65
2022/05/07 11:32:44;;;;;;;4.50;2.53;;;;;;;;;;5073396;28;20491;-66
2022/05/07 11:35:10;;;;;;;5.53;2.77;;;;;;;;;;5073368;28;20832;-66
2022/05/07 11:37:46;;;;;;;4.63;2.57;;;;;;;;;;5073421;28;20486;-65
2022/05/07 11:40:13;;;;;;;2.47;2.37;;;;;;;;;;5073196;28;20581;-65
2022/05/07 11:42:46;;;;;;;2.67;2.57;;;;;;;;;;5073304;28;20410;-66
2022/05/07 11:45:26;;;;;;;2.93;2.63;;;;;;;;;;5073272;28;20406;-66
2022/05/07 11:47:53;;;;;;;2.30;2.10;;;;;;;;;;5073538;28;20492;-66
2022/05/07 11:50:24;;;;;;;5.47;2.43;;;;;;;;;;5073405;28;20538;-62
2022/05/07 11:52:50;;;;;;;2.50;2.33;;;;;;;;;;5073256;28;20899;-68
2022/05/07 11:55:17;;;;;;;2.53;2.43;;;;;;;;;;5073409;28;20431;-66
2022/05/07 11:57:46;;;;;;;2.60;2.60;;;;;;;;;;5073200;28;20393;-65
2022/05/07 12:00:17;;;;;;;3.00;2.60;;;;;;;;;;5073090;28;20418;-66
2022/05/07 12:02:53;;;;;;;2.63;2.43;;;;;;;;;;5073221;28;20473;-67
2022/05/07 12:05:19;;;;;;;2.33;2.23;;;;;;;;;;5073334;28;20762;-64
2022/05/07 12:07:49;;;;;;;6.10;2.10;;;;;;;;;;5073198;28;20492;-66
2022/05/07 12:10:16;;;;;;;2.40;2.20;;;;;;;;;;5073275;28;20462;-62
2022/05/07 12:12:42;;;;;;;1.93;1.90;;;;;;;;;;5072756;28;20901;-61
2022/05/07 12:15:09;;;;;;;1.70;1.70;;;;;;;;;;5072975;28;20422;-62
2022/05/07 12:17:53;;;;;;;2.50;2.20;;;;;;;;;;5073078;28;20410;-61
2022/05/07 12:20:19;;;;;;;2.53;2.33;;;;;;;;;;5072922;28;20756;-61
2022/05/07 12:31:01;;;;;;;2.40;2.30;;;;;;;;;;5076537;28;20893;-60
2022/05/07 12:33:27;;;;;;;2.27;2.27;;;;;;;;;;5076500;28;20405;-60
2022/05/07 12:35:53;;;;;;;10.97;2.30;;;;;;;;;;5076851;28;20411;-60
2022/05/07 12:38:19;;;;;;;3.50;2.10;;;;;;;;;;5076715;28;20406;-62
2022/05/07 12:40:46;;;;;;;5.47;2.60;;;;;;;;;;5076196;28;20557;-60
2022/05/07 12:43:12;;;;;;;7.07;2.30;;;;;;;;;;5076438;28;20417;-61
2022/05/07 12:45:37;;;;;;;5.43;1.93;;;;;;;;;;5076278;28;20413;-61
2022/05/07 12:48:04;;;;;;;2.00;1.90;;;;;;;;;;5076340;28;20402;-60
2022/05/07 12:50:30;;;;;;;2.27;2.17;;;;;;;;;;5076104;28;20469;-62
2022/05/07 12:52:56;;;;;;;2.87;2.43;;;;;;;;;;5076194;28;20421;-59
2022/05/07 12:55:22;;;;;;;2.57;2.37;;;;;;;;;;5076108;28;20450;-61
2022/05/07 12:57:47;;;;;;;1.70;1.60;;;;;;;;;;5076175;28;20433;-65
2022/05/07 13:00:14;;;;;;;3.73;1.70;;;;;;;;;;5076133;28;20473;-63
2022/05/07 13:02:40;;;;;;;6.70;2.00;;;;;;;;;;5076289;28;20739;-63
2022/05/07 13:05:07;;;;;;;2.00;1.90;;;;;;;;;;5076011;28;20410;-65
2022/05/07 13:07:33;;;;;;;1.83;1.83;;;;;;;;;;5076025;28;20493;-62
2022/05/07 13:09:58;;;;;;;1.73;1.73;;;;;;;;;;5075856;28;20576;-62
2022/05/07 13:12:24;;;;;;;2.03;2.03;;;;;;;;;;5075900;28;20409;-61
2022/05/07 13:14:51;;;;;;;2.37;2.13;;;;;;;;;;5075869;28;20414;-63
2022/05/07 13:17:17;;;;;;;2.23;2.10;;;;;;;;;;5076096;28;20407;-62
2022/05/07 13:19:43;;;;;;;5.93;2.73;;;;;;;;;;5075737;28;20905;-62
2022/05/07 13:22:09;;;;;;;1.97;1.70;;;;;;;;;;5075740;28;20408;-62
2022/05/07 13:24:35;;;;;;;2.67;2.60;;;;;;;;;;5075628;28;20410;-62
2022/05/07 13:27:01;;;;;;;7.27;2.83;;;;;;;;;;5075586;28;20413;-62
2022/05/07 13:29:28;;;;;;;2.50;2.40;;;;;;;;;;5075447;28;20450;-62
2022/05/07 13:31:57;;;;;;;2.43;2.30;;;;;;;;;;5075552;28;20418;-62
2022/05/07 13:34:23;;;;;;;2.37;2.27;;;;;;;;;;5075473;28;20936;-62
2022/05/07 13:36:49;;;;;;;2.27;2.23;;;;;;;;;;5075438;28;20409;-62
2022/05/07 13:39:15;;;;;;;2.53;2.17;;;;;;;;;;5075208;28;20411;-62
2022/05/07 13:41:41;;;;;;;2.60;2.50;;;;;;;;;;5075264;28;20967;-63
2022/05/07 13:44:13;;;;;;;1.90;1.90;;;;;;;;;;5075302;28;20403;-62
2022/05/07 13:46:39;;;;;;;1.70;1.70;;;;;;;;;;5075236;28;20395;-64
2022/05/07 13:49:05;;;;;;;2.30;2.20;;;;;;;;;;5075033;28;20810;-63
2022/05/07 13:51:31;;;;;;;2.93;2.73;;;;;;;;;;5075234;28;20529;-61
2022/05/07 13:53:58;;;;;;;2.70;2.30;;;;;;;;;;5073808;28;20411;-62
2022/05/07 13:56:26;;;;;;;2.43;2.27;;;;;;;;;;5075098;28;20767;-62
2022/05/07 13:58:52;;;;;;;4.37;2.50;;;;;;;;;;5075227;28;20415;-60
2022/05/07 14:01:18;;;;;;;2.00;2.00;;;;;;;;;;5074959;28;20406;-61
2022/05/07 14:03:44;;;;;;;2.17;2.07;;;;;;;;;;5074901;28;20449;-62
2022/05/07 14:06:14;;;;;;;2.77;2.30;;;;;;;;;;5074840;28;20406;-61
2022/05/07 14:08:41;;;;;;;2.20;2.00;;;;;;;;;;5074703;28;20407;-62
2022/05/07 14:11:08;;;;;;;4.03;2.10;;;;;;;;;;5074567;28;20426;-63
2022/05/07 14:13:34;;;;;;;2.37;2.13;;;;;;;;;;5074603;28;20874;-62
2022/05/07 14:16:00;;;;;;;3.53;2.60;;;;;;;;;;5074419;28;20419;-60
2022/05/07 14:18:26;;;;;;;2.13;1.93;;;;;;;;;;5074678;28;20405;-63
2022/05/07 14:20:53;;;;;;;2.07;2.07;;;;;;;;;;5074444;28;20408;-62
2022/05/07 14:23:21;;;;;;;2.03;2.03;;;;;;;;;;5074618;28;20441;-63
2022/05/07 14:25:47;;;;;;;2.83;2.20;;;;;;;;;;5074660;28;20427;-62
2022/05/07 14:28:13;;;;;;;4.20;1.93;;;;;;;;;;5074444;28;20891;-61
2022/05/07 14:30:39;;;;;;;9.30;1.93;;;;;;;;;;5074312;28;20469;-61
2022/05/07 14:33:07;;;;;;;2.17;2.07;;;;;;;;;;5074343;28;20538;-63
2022/05/07 14:35:33;;;;;;;2.53;2.13;;;;;;;;;;5074208;28;20501;-62
2022/05/07 14:37:59;;;;;;;2.27;2.17;;;;;;;;;;5074228;28;20437;-62
2022/05/07 14:40:28;;;;;;;4.30;2.03;;;;;;;;;;5072809;28;20478;-62
2022/05/07 14:42:54;;;;;;;5.70;1.90;;;;;;;;;;5074076;28;20431;-63
2022/05/07 14:45:22;;;;;;;2.30;2.20;;;;;;;;;;5074050;28;20466;-61
2022/05/07 14:47:48;;;;;;;2.10;2.00;;;;;;;;;;5074022;28;20406;-66
2022/05/07 14:50:14;;;;;;;2.50;2.03;;;;;;;;;;5074102;28;20519;-66
2022/05/07 14:52:40;;;;;;;4.77;2.03;;;;;;;;;;5073397;28;20761;-67
2022/05/07 14:55:07;;;;;;;3.63;2.20;;;;;;;;;;5073851;28;20420;-66
2022/05/07 14:57:33;;;;;;;2.20;2.10;;;;;;;;;;5073812;28;20406;-67
2022/05/07 14:59:59;;;;;;;1.93;1.93;;;;;;;;;;5073794;28;20406;-68
2022/05/07 15:02:25;;;;;;;2.13;2.00;;;;;;;;;;5073762;28;20401;-65
2022/05/07 15:04:51;;;;;;;4.33;1.83;;;;;;;;;;5073626;28;20399;-62
2022/05/07 15:07:17;;;;;;;4.20;2.10;;;;;;;;;;5073651;28;20419;-60
2022/05/07 15:12:27;;;;;;;3.40;2.10;;;;;;;;;;5073598;28;20397;-61